Main page
METAR-TAF:

METAR-TAF

Airports :

Mitchell Municipal Airport

Mitchell, South Dakota, United States

latitude: 43-46N, longitude: 098-02W, elevation: 1302 ft

Current weather observation

The report was made 58 minutes ago, at 12:53 UTC
Wind 10 mph from the South/Southeast
Temperature 25°F
Humidity 86%
Pressure 29.93 in. Hg
Visibility: 10 miles
Clear sky

METAR: KMHE 221253Z AUTO 15009KT 10SM CLR M04/M06 A2993 RMK AO2 SLP151 T10391061

Time: 07:51 (13:51 UTC)


TAF: missing

Weather observations and forecasts of more than 4000 airports (METAR and TAF reports).

The available stations are represented by yellow and red dots on the map.

Hover mouse over dot to see the name of the station.

Then click to see weather observations and forecasts.

To change the map : click on the green buttons with a black cross to zoom in, on the green button with a dash to zoom out, or on the green arrows for adjacent maps.


METAR-TAF: